Home   Weather   Czechia   Prague   Past weeks
Flag for Czechia

Past Weather in Prague, Czechia — Yesterday and Last 2 Weeks

Currently: 86 °F. Passing clouds. (Weather station: Václav Havel Airport Prague, Czechia). See more current weather

Past Weather in Prague — Graph

°F

Prague Temperature Yesterday

Maximum temperature yesterday: 90 °F (at 3:30 pm)
Minimum temperature yesterday: 64 °F (at 1:30 am)
Average temperature yesterday: 78 °F

High & Low Weather Summary for the Past Weeks

 TemperatureHumidityPressure
High90 °F (Jun 19, 2:30 pm)100% (Jun 10, 3:30 am)30.30 "Hg (Jun 10, 3:30 am)
Low45 °F (Jun 14, 12:30 am)30% (Jun 7, 3:30 pm)29.71 "Hg (Jun 21, 3:30 am)
Average68 °F64%30.07 "Hg
* Reported Jun 6 2:00 pm — Jun 21 2:00 pm, Prague. Weather by CustomWeather, © 2021

Note: Actual official high and low records may vary slightly from our data, if they occured in-between our weather recording intervals... More about our weather records

Prague Weather History for the Previous 24 Hours

Scroll right to see more
 ConditionsComfort  
Time TempWeatherWind HumidityBarometerVisibility
2:00 pm
Mon, Jun 21
86 °FPassing clouds.7 mph35%29.77 "HgN/A
1:30 pm84 °FSunny.9 mph40%29.77 "Hg10 mi
1:00 pm84 °FPassing clouds.9 mph37%29.77 "HgN/A
12:30 pm82 °FPassing clouds.10 mph45%29.77 "HgN/A
12:00 pm82 °FPassing clouds.7 mph55%29.77 "HgN/A
11:30 am81 °FPassing clouds.7 mph58%29.77 "HgN/A
11:00 am81 °FPassing clouds.7 mph62%29.77 "HgN/A
10:30 am79 °FPassing clouds.10 mph65%29.77 "HgN/A
10:00 am77 °FPassing clouds.8 mph69%29.77 "HgN/A
9:30 am77 °FPassing clouds.8 mph69%29.74 "HgN/A
9:00 am75 °FSunny.7 mph74%29.74 "Hg10 mi
8:00 am73 °FSunny.1 mph74%29.74 "Hg10 mi
7:30 am72 °FSunny.1 mph83%29.74 "Hg10 mi
7:00 am72 °FSprinkles. Passing clouds.2 mph78%29.74 "HgN/A
6:30 am68 °FSunny.2 mph88%29.74 "Hg10 mi
6:00 am70 °FSunny.5 mph78%29.74 "Hg10 mi
5:30 am70 °FSunny.3 mph78%29.74 "Hg10 mi
5:00 am70 °FPassing clouds.3 mph78%29.74 "HgN/A
4:30 am72 °FPassing clouds.5 mph73%29.74 "HgN/A
4:16 am70 °FPassing clouds.6 mph78%29.74 "HgN/A
4:00 am70 °FClear.12 mph78%29.74 "Hg10 mi
3:30 am75 °FClear.10 mph65%29.71 "Hg10 mi
3:00 am73 °FClear.9 mph69%29.74 "Hg10 mi
2:30 am75 °FClear.8 mph65%29.74 "Hg10 mi
2:00 am75 °FClear.8 mph61%29.74 "Hg10 mi
1:30 am77 °FClear.14 mph57%29.74 "Hg10 mi
1:00 am77 °FClear.10 mph57%29.74 "Hg10 mi
12:30 am77 °FClear.9 mph57%29.74 "Hg10 mi
12:00 am75 °FClear.9 mph61%29.77 "Hg10 mi
11:30 pm
Sun, Jun 20
77 °FClear.9 mph57%29.77 "Hg10 mi
11:00 pm77 °FClear.9 mph57%29.77 "Hg10 mi
10:30 pm77 °FClear.9 mph54%29.77 "Hg10 mi
10:00 pm79 °FClear.9 mph51%29.80 "Hg10 mi
9:30 pm79 °FClear.8 mph51%29.80 "Hg10 mi
9:00 pm79 °FSunny.6 mph51%29.80 "Hg10 mi
8:00 pm84 °FSunny.7 mph45%29.83 "Hg10 mi
7:30 pm84 °FSunny.9 mph43%29.80 "Hg10 mi
7:00 pm84 °FSunny.8 mph48%29.80 "Hg10 mi
6:30 pm86 °FSunny.8 mph43%29.80 "Hg10 mi
6:00 pm86 °FSunny.9 mph43%29.80 "Hg10 mi
5:30 pm86 °FSunny.8 mph43%29.80 "Hg10 mi
5:00 pm88 °FSunny.8 mph40%29.83 "Hg10 mi
4:30 pm90 °FPassing clouds.7 mph38%29.83 "HgN/A
4:00 pm88 °FPassing clouds.7 mph46%29.86 "HgN/A
3:30 pm90 °FPassing clouds.5 mph41%29.86 "HgN/A
3:00 pm88 °FPassing clouds.5 mph38%29.86 "HgN/A
Weather by CustomWeather, © 2021

See weather overview